sensor_id;sensor_type;location;lat;lon;timestamp;temperature;humidity
49184;DHT22;35021;49.214;12.270;2023-12-14T00:01:16;21.60;38.80
49184;DHT22;35021;49.214;12.270;2023-12-14T00:03:43;21.60;38.80
49184;DHT22;35021;49.214;12.270;2023-12-14T00:06:13;21.60;38.80
49184;DHT22;35021;49.214;12.270;2023-12-14T00:08:41;21.60;38.90
49184;DHT22;35021;49.214;12.270;2023-12-14T00:11:08;21.60;38.80
49184;DHT22;35021;49.214;12.270;2023-12-14T00:13:36;21.50;38.80
49184;DHT22;35021;49.214;12.270;2023-12-14T00:16:03;21.50;38.80
49184;DHT22;35021;49.214;12.270;2023-12-14T00:18:31;21.50;38.90
49184;DHT22;35021;49.214;12.270;2023-12-14T00:20:58;21.50;38.90
49184;DHT22;35021;49.214;12.270;2023-12-14T00:23:25;21.50;38.90
49184;DHT22;35021;49.214;12.270;2023-12-14T00:25:52;21.50;38.90
49184;DHT22;35021;49.214;12.270;2023-12-14T00:28:19;21.50;38.90
49184;DHT22;35021;49.214;12.270;2023-12-14T00:30:46;21.50;38.90
49184;DHT22;35021;49.214;12.270;2023-12-14T00:33:13;21.50;38.90
49184;DHT22;35021;49.214;12.270;2023-12-14T00:35:40;21.50;38.80
49184;DHT22;35021;49.214;12.270;2023-12-14T00:38:07;21.50;38.80
49184;DHT22;35021;49.214;12.270;2023-12-14T00:40:34;21.40;38.80
49184;DHT22;35021;49.214;12.270;2023-12-14T00:43:01;21.50;38.80
49184;DHT22;35021;49.214;12.270;2023-12-14T00:45:28;21.50;38.80
49184;DHT22;35021;49.214;12.270;2023-12-14T00:47:55;21.50;38.70
49184;DHT22;35021;49.214;12.270;2023-12-14T00:50:22;21.50;38.70
49184;DHT22;35021;49.214;12.270;2023-12-14T00:52:49;21.50;38.70
49184;DHT22;35021;49.214;12.270;2023-12-14T00:55:16;21.50;38.60
49184;DHT22;35021;49.214;12.270;2023-12-14T00:57:43;21.50;38.60
49184;DHT22;35021;49.214;12.270;2023-12-14T01:00:10;21.50;38.60
49184;DHT22;35021;49.214;12.270;2023-12-14T01:02:37;21.50;38.60
49184;DHT22;35021;49.214;12.270;2023-12-14T01:05:04;21.50;38.50
49184;DHT22;35021;49.214;12.270;2023-12-14T01:07:32;21.50;38.50
49184;DHT22;35021;49.214;12.270;2023-12-14T01:09:59;21.50;38.50
49184;DHT22;35021;49.214;12.270;2023-12-14T01:12:26;21.50;38.50
49184;DHT22;35021;49.214;12.270;2023-12-14T01:14:53;21.50;38.50
49184;DHT22;35021;49.214;12.270;2023-12-14T01:17:20;21.50;38.50
49184;DHT22;35021;49.214;12.270;2023-12-14T01:19:47;21.50;38.50
49184;DHT22;35021;49.214;12.270;2023-12-14T01:22:14;21.50;38.50
49184;DHT22;35021;49.214;12.270;2023-12-14T01:24:42;21.50;38.50
49184;DHT22;35021;49.214;12.270;2023-12-14T01:27:09;21.50;38.50
49184;DHT22;35021;49.214;12.270;2023-12-14T01:29:37;21.50;38.50
49184;DHT22;35021;49.214;12.270;2023-12-14T01:32:04;21.50;38.50
49184;DHT22;35021;49.214;12.270;2023-12-14T01:34:31;21.50;39.20
49184;DHT22;35021;49.214;12.270;2023-12-14T01:36:58;21.50;38.40
49184;DHT22;35021;49.214;12.270;2023-12-14T01:39:25;21.50;38.50
49184;DHT22;35021;49.214;12.270;2023-12-14T01:41:52;21.50;38.50
49184;DHT22;35021;49.214;12.270;2023-12-14T01:44:19;21.50;38.40
49184;DHT22;35021;49.214;12.270;2023-12-14T01:46:46;21.50;39.20
49184;DHT22;35021;49.214;12.270;2023-12-14T01:49:13;21.50;38.50
49184;DHT22;35021;49.214;12.270;2023-12-14T01:51:40;21.50;38.50
49184;DHT22;35021;49.214;12.270;2023-12-14T01:54:07;21.50;38.50
49184;DHT22;35021;49.214;12.270;2023-12-14T01:56:34;21.50;38.50
49184;DHT22;35021;49.214;12.270;2023-12-14T01:59:01;21.50;38.50
49184;DHT22;35021;49.214;12.270;2023-12-14T02:01:38;21.50;38.50
49184;DHT22;35021;49.214;12.270;2023-12-14T02:04:06;21.50;38.50
49184;DHT22;35021;49.214;12.270;2023-12-14T02:06:34;21.50;38.50
49184;DHT22;35021;49.214;12.270;2023-12-14T02:09:01;21.50;38.40
49184;DHT22;35021;49.214;12.270;2023-12-14T02:11:28;21.50;38.50
49184;DHT22;35021;49.214;12.270;2023-12-14T02:13:55;21.50;38.50
49184;DHT22;35021;49.214;12.270;2023-12-14T02:16:22;21.40;38.40
49184;DHT22;35021;49.214;12.270;2023-12-14T02:18:49;21.40;38.50
49184;DHT22;35021;49.214;12.270;2023-12-14T02:21:16;21.30;38.60
49184;DHT22;35021;49.214;12.270;2023-12-14T02:23:45;21.30;38.80
49184;DHT22;35021;49.214;12.270;2023-12-14T02:26:13;21.20;38.90
49184;DHT22;35021;49.214;12.270;2023-12-14T02:28:40;21.20;39.10
49184;DHT22;35021;49.214;12.270;2023-12-14T02:31:07;21.10;39.10
49184;DHT22;35021;49.214;12.270;2023-12-14T02:33:34;21.10;39.20
49184;DHT22;35021;49.214;12.270;2023-12-14T02:36:01;21.10;39.20
49184;DHT22;35021;49.214;12.270;2023-12-14T02:38:30;21.00;39.30
49184;DHT22;35021;49.214;12.270;2023-12-14T02:40:57;21.00;39.30
49184;DHT22;35021;49.214;12.270;2023-12-14T02:43:24;21.00;39.30
49184;DHT22;35021;49.214;12.270;2023-12-14T02:45:51;21.00;39.30
49184;DHT22;35021;49.214;12.270;2023-12-14T02:48:18;21.00;39.30
49184;DHT22;35021;49.214;12.270;2023-12-14T02:50:45;21.00;39.30
49184;DHT22;35021;49.214;12.270;2023-12-14T02:53:12;21.00;39.20
49184;DHT22;35021;49.214;12.270;2023-12-14T02:55:39;21.00;39.20
49184;DHT22;35021;49.214;12.270;2023-12-14T02:58:07;21.00;39.20
49184;DHT22;35021;49.214;12.270;2023-12-14T03:00:34;21.00;39.20
49184;DHT22;35021;49.214;12.270;2023-12-14T03:03:01;21.00;39.20
49184;DHT22;35021;49.214;12.270;2023-12-14T03:05:28;21.00;39.20
49184;DHT22;35021;49.214;12.270;2023-12-14T03:07:55;21.00;39.20
49184;DHT22;35021;49.214;12.270;2023-12-14T03:10:22;21.00;39.20
49184;DHT22;35021;49.214;12.270;2023-12-14T03:12:49;21.00;39.20
49184;DHT22;35021;49.214;12.270;2023-12-14T03:15:17;21.00;39.20
49184;DHT22;35021;49.214;12.270;2023-12-14T03:17:44;21.00;39.50
49184;DHT22;35021;49.214;12.270;2023-12-14T03:20:11;21.10;39.10
49184;DHT22;35021;49.214;12.270;2023-12-14T03:22:41;21.20;39.00
49184;DHT22;35021;49.214;12.270;2023-12-14T03:25:08;21.30;38.90
49184;DHT22;35021;49.214;12.270;2023-12-14T03:27:36;21.30;38.70
49184;DHT22;35021;49.214;12.270;2023-12-14T03:30:03;21.40;38.60
49184;DHT22;35021;49.214;12.270;2023-12-14T03:32:34;21.50;38.40
49184;DHT22;35021;49.214;12.270;2023-12-14T03:35:02;21.60;38.30
49184;DHT22;35021;49.214;12.270;2023-12-14T03:37:30;21.70;38.10
49184;DHT22;35021;49.214;12.270;2023-12-14T03:39:57;21.70;37.90
49184;DHT22;35021;49.214;12.270;2023-12-14T03:42:24;21.80;37.80
49184;DHT22;35021;49.214;12.270;2023-12-14T03:44:51;21.80;37.70
49184;DHT22;35021;49.214;12.270;2023-12-14T03:47:18;21.90;37.80
49184;DHT22;35021;49.214;12.270;2023-12-14T03:49:45;21.90;37.70
49184;DHT22;35021;49.214;12.270;2023-12-14T03:52:12;21.90;37.80
49184;DHT22;35021;49.214;12.270;2023-12-14T03:54:39;21.80;37.70
49184;DHT22;35021;49.214;12.270;2023-12-14T03:57:06;21.80;37.70
49184;DHT22;35021;49.214;12.270;2023-12-14T03:59:33;21.90;37.70
49184;DHT22;35021;49.214;12.270;2023-12-14T04:02:00;21.90;37.60
49184;DHT22;35021;49.214;12.270;2023-12-14T04:04:28;21.90;37.50
49184;DHT22;35021;49.214;12.270;2023-12-14T04:06:55;22.00;37.50
49184;DHT22;35021;49.214;12.270;2023-12-14T04:09:22;22.00;37.40
49184;DHT22;35021;49.214;12.270;2023-12-14T04:11:49;22.10;37.30
49184;DHT22;35021;49.214;12.270;2023-12-14T04:14:16;22.10;37.10
49184;DHT22;35021;49.214;12.270;2023-12-14T04:16:43;22.10;37.10
49184;DHT22;35021;49.214;12.270;2023-12-14T04:19:10;22.20;37.10
49184;DHT22;35021;49.214;12.270;2023-12-14T04:21:37;22.20;37.00
49184;DHT22;35021;49.214;12.270;2023-12-14T04:24:04;22.20;37.10
49184;DHT22;35021;49.214;12.270;2023-12-14T04:26:31;22.10;37.10
49184;DHT22;35021;49.214;12.270;2023-12-14T04:28:58;22.00;37.20
49184;DHT22;35021;49.214;12.270;2023-12-14T04:31:25;21.90;37.30
49184;DHT22;35021;49.214;12.270;2023-12-14T04:33:57;21.80;37.40
49184;DHT22;35021;49.214;12.270;2023-12-14T04:36:24;21.80;37.50
49184;DHT22;35021;49.214;12.270;2023-12-14T04:38:51;21.70;37.60
49184;DHT22;35021;49.214;12.270;2023-12-14T04:41:18;21.70;37.70
49184;DHT22;35021;49.214;12.270;2023-12-14T04:43:45;21.70;37.70
49184;DHT22;35021;49.214;12.270;2023-12-14T04:46:12;21.70;37.70
49184;DHT22;35021;49.214;12.270;2023-12-14T04:48:40;21.70;37.60
49184;DHT22;35021;49.214;12.270;2023-12-14T04:51:10;21.70;37.60
49184;DHT22;35021;49.214;12.270;2023-12-14T04:53:37;21.80;37.50
49184;DHT22;35021;49.214;12.270;2023-12-14T04:56:05;21.80;37.50
49184;DHT22;35021;49.214;12.270;2023-12-14T04:58:32;21.80;37.40
49184;DHT22;35021;49.214;12.270;2023-12-14T05:00:59;21.80;37.40
49184;DHT22;35021;49.214;12.270;2023-12-14T05:03:26;21.80;37.40
49184;DHT22;35021;49.214;12.270;2023-12-14T05:05:53;21.70;37.50
49184;DHT22;35021;49.214;12.270;2023-12-14T05:08:20;21.70;37.60
49184;DHT22;35021;49.214;12.270;2023-12-14T05:10:47;21.60;38.30
49184;DHT22;35021;49.214;12.270;2023-12-14T05:13:14;21.60;37.70
49184;DHT22;35021;49.214;12.270;2023-12-14T05:15:41;21.60;37.70
49184;DHT22;35021;49.214;12.270;2023-12-14T05:18:08;21.50;37.70
49184;DHT22;35021;49.214;12.270;2023-12-14T05:20:35;21.50;37.60
49184;DHT22;35021;49.214;12.270;2023-12-14T05:23:02;21.60;37.70
49184;DHT22;35021;49.214;12.270;2023-12-14T05:25:29;21.60;37.70
49184;DHT22;35021;49.214;12.270;2023-12-14T05:27:56;21.60;37.60
49184;DHT22;35021;49.214;12.270;2023-12-14T05:30:23;21.60;37.60
49184;DHT22;35021;49.214;12.270;2023-12-14T05:32:50;21.60;37.60
49184;DHT22;35021;49.214;12.270;2023-12-14T05:35:17;21.70;37.70
49184;DHT22;35021;49.214;12.270;2023-12-14T05:37:44;21.70;37.70
49184;DHT22;35021;49.214;12.270;2023-12-14T05:40:11;21.60;37.60
49184;DHT22;35021;49.214;12.270;2023-12-14T05:42:38;21.60;37.70
49184;DHT22;35021;49.214;12.270;2023-12-14T05:45:05;21.60;37.80
49184;DHT22;35021;49.214;12.270;2023-12-14T05:47:35;21.50;37.80
49184;DHT22;35021;49.214;12.270;2023-12-14T05:50:03;21.50;37.80
49184;DHT22;35021;49.214;12.270;2023-12-14T05:52:31;21.50;37.70
49184;DHT22;35021;49.214;12.270;2023-12-14T05:54:58;21.50;37.70
49184;DHT22;35021;49.214;12.270;2023-12-14T05:57:30;21.50;37.70
49184;DHT22;35021;49.214;12.270;2023-12-14T05:59:57;21.50;37.60
49184;DHT22;35021;49.214;12.270;2023-12-14T06:02:24;21.60;37.60
49184;DHT22;35021;49.214;12.270;2023-12-14T06:04:51;21.60;37.40
49184;DHT22;35021;49.214;12.270;2023-12-14T06:07:18;21.70;37.70
49184;DHT22;35021;49.214;12.270;2023-12-14T06:09:45;21.70;37.10
49184;DHT22;35021;49.214;12.270;2023-12-14T06:12:12;21.70;37.00
49184;DHT22;35021;49.214;12.270;2023-12-14T06:14:40;21.70;36.90
49184;DHT22;35021;49.214;12.270;2023-12-14T06:17:07;21.70;36.90
49184;DHT22;35021;49.214;12.270;2023-12-14T06:19:34;21.80;36.90
49184;DHT22;35021;49.214;12.270;2023-12-14T06:22:01;21.70;36.80
49184;DHT22;35021;49.214;12.270;2023-12-14T06:24:28;21.70;36.80
49184;DHT22;35021;49.214;12.270;2023-12-14T06:26:55;21.70;36.80
49184;DHT22;35021;49.214;12.270;2023-12-14T06:29:22;21.60;36.70
49184;DHT22;35021;49.214;12.270;2023-12-14T06:31:49;21.60;36.70
49184;DHT22;35021;49.214;12.270;2023-12-14T06:34:16;21.60;36.60
49184;DHT22;35021;49.214;12.270;2023-12-14T06:36:46;21.70;36.70
49184;DHT22;35021;49.214;12.270;2023-12-14T06:39:13;21.70;36.60
49184;DHT22;35021;49.214;12.270;2023-12-14T06:41:40;21.70;36.50
49184;DHT22;35021;49.214;12.270;2023-12-14T06:44:07;21.80;36.50
49184;DHT22;35021;49.214;12.270;2023-12-14T06:46:36;21.80;36.50
49184;DHT22;35021;49.214;12.270;2023-12-14T06:49:03;21.90;36.50
49184;DHT22;35021;49.214;12.270;2023-12-14T06:51:30;21.90;36.40
49184;DHT22;35021;49.214;12.270;2023-12-14T06:53:57;22.00;36.40
49184;DHT22;35021;49.214;12.270;2023-12-14T06:56:24;22.00;36.30
49184;DHT22;35021;49.214;12.270;2023-12-14T06:58:51;22.00;36.30
49184;DHT22;35021;49.214;12.270;2023-12-14T07:01:18;22.00;36.30
49184;DHT22;35021;49.214;12.270;2023-12-14T07:03:46;22.00;36.30
49184;DHT22;35021;49.214;12.270;2023-12-14T07:06:16;22.00;36.40
49184;DHT22;35021;49.214;12.270;2023-12-14T07:08:44;22.00;36.40
49184;DHT22;35021;49.214;12.270;2023-12-14T07:11:11;21.90;36.40
49184;DHT22;35021;49.214;12.270;2023-12-14T07:13:39;21.90;36.50
49184;DHT22;35021;49.214;12.270;2023-12-14T07:16:06;21.90;36.50
49184;DHT22;35021;49.214;12.270;2023-12-14T07:18:42;21.90;36.50
49184;DHT22;35021;49.214;12.270;2023-12-14T07:21:09;22.00;36.50
49184;DHT22;35021;49.214;12.270;2023-12-14T07:23:36;22.00;36.50
49184;DHT22;35021;49.214;12.270;2023-12-14T07:26:04;22.10;36.50
49184;DHT22;35021;49.214;12.270;2023-12-14T07:28:33;22.10;36.40
49184;DHT22;35021;49.214;12.270;2023-12-14T07:31:00;22.10;36.30
49184;DHT22;35021;49.214;12.270;2023-12-14T07:33:28;22.20;36.30
49184;DHT22;35021;49.214;12.270;2023-12-14T07:35:55;22.20;36.30
49184;DHT22;35021;49.214;12.270;2023-12-14T07:38:22;22.20;36.20
49184;DHT22;35021;49.214;12.270;2023-12-14T07:40:50;22.20;36.30
49184;DHT22;35021;49.214;12.270;2023-12-14T07:43:19;22.20;36.30
49184;DHT22;35021;49.214;12.270;2023-12-14T07:45:46;22.20;36.30
49184;DHT22;35021;49.214;12.270;2023-12-14T07:48:13;22.20;36.40
49184;DHT22;35021;49.214;12.270;2023-12-14T07:50:40;22.10;36.40
49184;DHT22;35021;49.214;12.270;2023-12-14T07:53:07;22.10;36.50
49184;DHT22;35021;49.214;12.270;2023-12-14T07:55:34;22.00;36.60
49184;DHT22;35021;49.214;12.270;2023-12-14T07:58:01;22.00;36.70
49184;DHT22;35021;49.214;12.270;2023-12-14T08:00:31;21.90;36.90
49184;DHT22;35021;49.214;12.270;2023-12-14T08:02:58;21.90;36.90
49184;DHT22;35021;49.214;12.270;2023-12-14T08:05:25;21.90;36.90
49184;DHT22;35021;49.214;12.270;2023-12-14T08:07:52;21.90;37.00
49184;DHT22;35021;49.214;12.270;2023-12-14T08:10:19;21.90;37.00
49184;DHT22;35021;49.214;12.270;2023-12-14T08:12:46;21.90;36.90
49184;DHT22;35021;49.214;12.270;2023-12-14T08:15:14;22.00;37.00
49184;DHT22;35021;49.214;12.270;2023-12-14T08:17:41;22.00;37.00
49184;DHT22;35021;49.214;12.270;2023-12-14T08:20:08;22.00;36.90
49184;DHT22;35021;49.214;12.270;2023-12-14T08:22:37;22.00;36.90
49184;DHT22;35021;49.214;12.270;2023-12-14T08:25:04;22.00;36.90
49184;DHT22;35021;49.214;12.270;2023-12-14T08:27:31;22.00;37.00
49184;DHT22;35021;49.214;12.270;2023-12-14T08:29:58;21.90;37.00
49184;DHT22;35021;49.214;12.270;2023-12-14T08:32:25;21.90;37.20
49184;DHT22;35021;49.214;12.270;2023-12-14T08:34:52;21.80;37.30
49184;DHT22;35021;49.214;12.270;2023-12-14T08:37:19;21.70;37.40
49184;DHT22;35021;49.214;12.270;2023-12-14T08:39:47;21.70;38.30
49184;DHT22;35021;49.214;12.270;2023-12-14T08:42:14;21.60;37.60
49184;DHT22;35021;49.214;12.270;2023-12-14T08:44:41;21.60;37.70
49184;DHT22;35021;49.214;12.270;2023-12-14T08:47:08;21.50;37.70
49184;DHT22;35021;49.214;12.270;2023-12-14T08:49:36;21.60;37.80
49184;DHT22;35021;49.214;12.270;2023-12-14T08:52:03;21.60;37.60
49184;DHT22;35021;49.214;12.270;2023-12-14T08:54:31;21.60;37.60
49184;DHT22;35021;49.214;12.270;2023-12-14T08:56:58;21.70;38.20
49184;DHT22;35021;49.214;12.270;2023-12-14T08:59:25;21.70;37.40
49184;DHT22;35021;49.214;12.270;2023-12-14T09:01:52;21.70;37.30
49184;DHT22;35021;49.214;12.270;2023-12-14T09:04:20;21.80;37.20
49184;DHT22;35021;49.214;12.270;2023-12-14T09:06:47;21.80;37.20
49184;DHT22;35021;49.214;12.270;2023-12-14T09:09:16;21.90;37.30
49184;DHT22;35021;49.214;12.270;2023-12-14T09:11:45;21.90;37.20
49184;DHT22;35021;49.214;12.270;2023-12-14T09:14:12;21.90;37.20
49184;DHT22;35021;49.214;12.270;2023-12-14T09:16:39;21.90;37.30
49184;DHT22;35021;49.214;12.270;2023-12-14T09:19:06;21.80;37.30
49184;DHT22;35021;49.214;12.270;2023-12-14T09:21:33;21.80;37.40
49184;DHT22;35021;49.214;12.270;2023-12-14T09:24:12;21.80;37.40
49184;DHT22;35021;49.214;12.270;2023-12-14T09:26:40;21.70;37.60
49184;DHT22;35021;49.214;12.270;2023-12-14T09:29:07;21.70;37.70
49184;DHT22;35021;49.214;12.270;2023-12-14T09:31:34;21.60;37.70
49184;DHT22;35021;49.214;12.270;2023-12-14T09:34:02;21.60;37.70
49184;DHT22;35021;49.214;12.270;2023-12-14T09:36:30;21.60;37.70
49184;DHT22;35021;49.214;12.270;2023-12-14T09:38:56;21.60;37.70
49184;DHT22;35021;49.214;12.270;2023-12-14T09:41:23;21.60;37.70
49184;DHT22;35021;49.214;12.270;2023-12-14T09:43:51;21.60;37.60
49184;DHT22;35021;49.214;12.270;2023-12-14T09:46:18;21.70;37.60
49184;DHT22;35021;49.214;12.270;2023-12-14T09:48:46;21.70;37.50
49184;DHT22;35021;49.214;12.270;2023-12-14T09:51:14;21.70;37.50
49184;DHT22;35021;49.214;12.270;2023-12-14T09:53:42;21.80;37.40
49184;DHT22;35021;49.214;12.270;2023-12-14T09:56:09;21.80;37.30
49184;DHT22;35021;49.214;12.270;2023-12-14T09:58:36;21.90;37.30
49184;DHT22;35021;49.214;12.270;2023-12-14T10:01:20;21.90;37.30
49184;DHT22;35021;49.214;12.270;2023-12-14T10:03:47;21.90;37.30
49184;DHT22;35021;49.214;12.270;2023-12-14T10:06:14;21.80;37.30
49184;DHT22;35021;49.214;12.270;2023-12-14T10:08:41;21.80;37.40
49184;DHT22;35021;49.214;12.270;2023-12-14T10:11:20;21.70;37.50
49184;DHT22;35021;49.214;12.270;2023-12-14T10:13:47;21.60;37.50
49184;DHT22;35021;49.214;12.270;2023-12-14T10:16:26;21.60;37.60
49184;DHT22;35021;49.214;12.270;2023-12-14T10:18:53;21.60;37.70
49184;DHT22;35021;49.214;12.270;2023-12-14T10:21:20;21.60;37.70
49184;DHT22;35021;49.214;12.270;2023-12-14T10:23:47;21.60;37.70
49184;DHT22;35021;49.214;12.270;2023-12-14T10:26:15;21.60;37.70
49184;DHT22;35021;49.214;12.270;2023-12-14T10:28:42;21.60;37.60
49184;DHT22;35021;49.214;12.270;2023-12-14T10:31:09;21.70;37.70
49184;DHT22;35021;49.214;12.270;2023-12-14T10:33:37;21.70;37.60
49184;DHT22;35021;49.214;12.270;2023-12-14T10:36:05;21.70;37.50
49184;DHT22;35021;49.214;12.270;2023-12-14T10:38:32;21.80;37.40
49184;DHT22;35021;49.214;12.270;2023-12-14T10:41:01;21.80;37.40
49184;DHT22;35021;49.214;12.270;2023-12-14T10:43:28;21.90;37.40
49184;DHT22;35021;49.214;12.270;2023-12-14T10:46:15;21.90;37.40
49184;DHT22;35021;49.214;12.270;2023-12-14T10:48:43;22.00;37.30
49184;DHT22;35021;49.214;12.270;2023-12-14T10:51:12;22.10;37.30
49184;DHT22;35021;49.214;12.270;2023-12-14T10:53:39;22.10;37.30
49184;DHT22;35021;49.214;12.270;2023-12-14T10:56:07;22.10;37.30
49184;DHT22;35021;49.214;12.270;2023-12-14T10:58:57;22.20;37.30
49184;DHT22;35021;49.214;12.270;2023-12-14T11:01:25;22.20;37.30
49184;DHT22;35021;49.214;12.270;2023-12-14T11:03:56;22.20;37.20
49184;DHT22;35021;49.214;12.270;2023-12-14T11:06:30;22.30;37.30
49184;DHT22;35021;49.214;12.270;2023-12-14T11:09:03;22.30;37.30
49184;DHT22;35021;49.214;12.270;2023-12-14T11:11:40;22.40;37.30
49184;DHT22;35021;49.214;12.270;2023-12-14T11:14:07;22.40;37.10
49184;DHT22;35021;49.214;12.270;2023-12-14T11:16:35;22.50;37.10
49184;DHT22;35021;49.214;12.270;2023-12-14T11:24:31;22.70;37.00
49184;DHT22;35021;49.214;12.270;2023-12-14T11:26:58;22.70;36.90
49184;DHT22;35021;49.214;12.270;2023-12-14T11:29:26;22.80;36.90
49184;DHT22;35021;49.214;12.270;2023-12-14T11:31:53;22.80;36.90
49184;DHT22;35021;49.214;12.270;2023-12-14T11:34:20;22.80;36.90
49184;DHT22;35021;49.214;12.270;2023-12-14T11:36:50;22.80;36.90
49184;DHT22;35021;49.214;12.270;2023-12-14T11:39:17;22.80;36.90
49184;DHT22;35021;49.214;12.270;2023-12-14T11:41:58;22.90;36.80
49184;DHT22;35021;49.214;12.270;2023-12-14T11:44:33;22.90;36.80
49184;DHT22;35021;49.214;12.270;2023-12-14T11:47:01;22.90;36.80
49184;DHT22;35021;49.214;12.270;2023-12-14T11:49:28;22.90;36.70
49184;DHT22;35021;49.214;12.270;2023-12-14T11:51:56;23.00;36.70
49184;DHT22;35021;49.214;12.270;2023-12-14T11:54:23;23.00;36.70
49184;DHT22;35021;49.214;12.270;2023-12-14T11:56:50;23.10;36.70
49184;DHT22;35021;49.214;12.270;2023-12-14T11:59:18;23.10;36.50
49184;DHT22;35021;49.214;12.270;2023-12-14T12:04:23;23.10;37.10
49184;DHT22;35021;49.214;12.270;2023-12-14T12:06:50;23.10;36.40
49184;DHT22;35021;49.214;12.270;2023-12-14T12:09:35;23.10;36.30
49184;DHT22;35021;49.214;12.270;2023-12-14T12:12:06;23.10;36.50
49184;DHT22;35021;49.214;12.270;2023-12-14T12:14:34;23.00;36.50
49184;DHT22;35021;49.214;12.270;2023-12-14T12:17:01;22.90;36.60
49184;DHT22;35021;49.214;12.270;2023-12-14T12:19:28;22.90;36.70
49184;DHT22;35021;49.214;12.270;2023-12-14T12:21:55;22.80;36.90
49184;DHT22;35021;49.214;12.270;2023-12-14T12:24:22;22.80;37.10
49184;DHT22;35021;49.214;12.270;2023-12-14T12:26:54;22.70;37.20
49184;DHT22;35021;49.214;12.270;2023-12-14T12:29:21;22.70;37.20
49184;DHT22;35021;49.214;12.270;2023-12-14T12:31:48;22.60;37.30
49184;DHT22;35021;49.214;12.270;2023-12-14T12:34:15;22.70;37.30
49184;DHT22;35021;49.214;12.270;2023-12-14T12:36:43;22.70;37.20
49184;DHT22;35021;49.214;12.270;2023-12-14T12:39:10;22.70;37.20
49184;DHT22;35021;49.214;12.270;2023-12-14T12:41:37;22.70;37.10
49184;DHT22;35021;49.214;12.270;2023-12-14T12:44:04;22.80;37.10
49184;DHT22;35021;49.214;12.270;2023-12-14T12:46:40;22.80;37.10
49184;DHT22;35021;49.214;12.270;2023-12-14T12:49:07;22.80;37.00
49184;DHT22;35021;49.214;12.270;2023-12-14T12:51:34;22.80;36.90
49184;DHT22;35021;49.214;12.270;2023-12-14T12:54:02;22.80;36.90
49184;DHT22;35021;49.214;12.270;2023-12-14T12:56:39;22.80;36.80
49184;DHT22;35021;49.214;12.270;2023-12-14T12:59:07;22.90;36.80
49184;DHT22;35021;49.214;12.270;2023-12-14T13:01:36;22.90;36.80
49184;DHT22;35021;49.214;12.270;2023-12-14T13:04:03;22.90;36.70
49184;DHT22;35021;49.214;12.270;2023-12-14T13:06:32;22.90;36.70
49184;DHT22;35021;49.214;12.270;2023-12-14T13:08:59;22.90;36.70
49184;DHT22;35021;49.214;12.270;2023-12-14T13:11:26;23.00;36.70
49184;DHT22;35021;49.214;12.270;2023-12-14T13:13:54;23.00;36.60
49184;DHT22;35021;49.214;12.270;2023-12-14T13:16:21;23.00;36.60
49184;DHT22;35021;49.214;12.270;2023-12-14T13:18:48;23.10;36.60
49184;DHT22;35021;49.214;12.270;2023-12-14T13:21:15;23.10;36.50
49184;DHT22;35021;49.214;12.270;2023-12-14T13:23:42;23.10;36.50
49184;DHT22;35021;49.214;12.270;2023-12-14T13:26:11;23.10;36.50
49184;DHT22;35021;49.214;12.270;2023-12-14T13:28:38;23.10;36.50
49184;DHT22;35021;49.214;12.270;2023-12-14T13:31:05;23.10;36.50
49184;DHT22;35021;49.214;12.270;2023-12-14T13:33:33;23.00;36.50
49184;DHT22;35021;49.214;12.270;2023-12-14T13:36:00;23.00;36.60
49184;DHT22;35021;49.214;12.270;2023-12-14T13:38:27;23.00;36.70
49184;DHT22;35021;49.214;12.270;2023-12-14T13:40:54;22.90;36.60
49184;DHT22;35021;49.214;12.270;2023-12-14T13:43:41;22.90;36.70
49184;DHT22;35021;49.214;12.270;2023-12-14T13:46:08;22.80;36.80
49184;DHT22;35021;49.214;12.270;2023-12-14T13:48:46;22.80;36.80
49184;DHT22;35021;49.214;12.270;2023-12-14T13:51:14;22.80;36.80
49184;DHT22;35021;49.214;12.270;2023-12-14T13:53:41;22.80;36.80
49184;DHT22;35021;49.214;12.270;2023-12-14T13:56:10;22.80;36.80
49184;DHT22;35021;49.214;12.270;2023-12-14T13:58:37;22.80;36.90
49184;DHT22;35021;49.214;12.270;2023-12-14T14:01:06;22.80;36.80
49184;DHT22;35021;49.214;12.270;2023-12-14T14:03:34;22.80;36.80
49184;DHT22;35021;49.214;12.270;2023-12-14T14:06:02;22.80;36.70
49184;DHT22;35021;49.214;12.270;2023-12-14T14:08:29;22.80;36.80
49184;DHT22;35021;49.214;12.270;2023-12-14T14:10:58;22.70;36.80
49184;DHT22;35021;49.214;12.270;2023-12-14T14:13:26;22.70;36.80
49184;DHT22;35021;49.214;12.270;2023-12-14T14:15:53;22.70;36.90
49184;DHT22;35021;49.214;12.270;2023-12-14T14:18:20;22.70;36.90
49184;DHT22;35021;49.214;12.270;2023-12-14T14:20:47;22.70;36.90
49184;DHT22;35021;49.214;12.270;2023-12-14T14:23:14;22.70;36.90
49184;DHT22;35021;49.214;12.270;2023-12-14T14:25:41;22.70;36.80
49184;DHT22;35021;49.214;12.270;2023-12-14T14:28:08;22.70;36.90
49184;DHT22;35021;49.214;12.270;2023-12-14T14:30:35;22.70;36.80
49184;DHT22;35021;49.214;12.270;2023-12-14T14:33:02;22.70;37.00
49184;DHT22;35021;49.214;12.270;2023-12-14T14:35:29;22.70;36.90
49184;DHT22;35021;49.214;12.270;2023-12-14T14:37:59;22.60;36.90
49184;DHT22;35021;49.214;12.270;2023-12-14T14:40:28;22.60;37.00
49184;DHT22;35021;49.214;12.270;2023-12-14T14:42:55;22.60;37.00
49184;DHT22;35021;49.214;12.270;2023-12-14T14:45:22;22.60;37.10
49184;DHT22;35021;49.214;12.270;2023-12-14T14:47:49;22.60;37.00
49184;DHT22;35021;49.214;12.270;2023-12-14T14:50:16;22.60;37.00
49184;DHT22;35021;49.214;12.270;2023-12-14T14:52:43;22.60;36.90
49184;DHT22;35021;49.214;12.270;2023-12-14T14:55:11;22.60;36.80
49184;DHT22;35021;49.214;12.270;2023-12-14T14:57:38;22.70;36.80
49184;DHT22;35021;49.214;12.270;2023-12-14T15:00:05;22.70;36.60
49184;DHT22;35021;49.214;12.270;2023-12-14T15:02:34;22.80;36.60
49184;DHT22;35021;49.214;12.270;2023-12-14T15:05:02;22.80;36.50
49184;DHT22;35021;49.214;12.270;2023-12-14T15:07:30;22.90;36.40
49184;DHT22;35021;49.214;12.270;2023-12-14T15:09:57;23.00;36.30
49184;DHT22;35021;49.214;12.270;2023-12-14T15:12:24;23.00;36.20
49184;DHT22;35021;49.214;12.270;2023-12-14T15:14:51;23.10;36.10
49184;DHT22;35021;49.214;12.270;2023-12-14T15:17:18;23.10;36.10
49184;DHT22;35021;49.214;12.270;2023-12-14T15:19:46;23.20;36.00
49184;DHT22;35021;49.214;12.270;2023-12-14T15:22:13;23.20;35.80
49184;DHT22;35021;49.214;12.270;2023-12-14T15:24:44;23.30;35.80
49184;DHT22;35021;49.214;12.270;2023-12-14T15:27:11;23.30;35.80